Daleville, Alabama
Current Conditions -  °F | °C
As of 8:58 AM on Sunday 21 Dec 2014 (Local Time) from KOZR Reporting Station
Overcast Overcast  
Wind Chill: 55°   Ceiling: 1100
Heat Index: 55°   Visibility: 10mi
Dew Point: 50°   Wind: 8mph
Humidity: 84%   Direction: 50°NE
Pressure: 30.13"   Gusts: NA
Location:  31.31°N, 85.71°W
Report Text: KOZR 211458Z AUTO 05007KT 10SM OVC011 13/10 A3013 RMK AO2 SLP205 T01270101 53004
Loading
Personal Weather Stations






























Interactive Weather Map New forecast layout! Learn more

10-Day Weather Forecast

Advertisements
Track Severe Weather on mobile